createdAt,value
2022-12-04T00:01:29.224Z,8.40
2022-12-04T00:03:59.329Z,8.40
2022-12-04T00:06:28.413Z,8.40
2022-12-04T00:08:57.075Z,8.40
2022-12-04T00:11:28.854Z,8.40
2022-12-04T00:14:02.983Z,8.40
2022-12-04T00:16:34.611Z,8.40
2022-12-04T00:19:02.817Z,8.40
2022-12-04T00:21:30.981Z,8.40
2022-12-04T00:23:59.289Z,8.40
2022-12-04T00:26:31.819Z,8.40
2022-12-04T00:29:00.286Z,8.40
2022-12-04T00:31:31.124Z,8.40
2022-12-04T00:34:00.333Z,8.50
2022-12-04T00:36:30.422Z,8.50
2022-12-04T00:39:00.985Z,8.50
2022-12-04T00:41:32.041Z,8.50
2022-12-04T00:44:00.786Z,8.50
2022-12-04T00:46:29.875Z,8.50
2022-12-04T00:48:59.476Z,8.50
2022-12-04T00:51:27.630Z,8.50
2022-12-04T00:53:56.241Z,8.60
2022-12-04T00:56:26.805Z,8.60
2022-12-04T00:58:59.623Z,8.60
2022-12-04T01:01:31.727Z,8.60
2022-12-04T01:04:00.106Z,8.60
2022-12-04T01:06:30.571Z,8.50
2022-12-04T01:08:59.748Z,8.50
2022-12-04T01:11:29.604Z,8.50
2022-12-04T01:13:59.602Z,8.50
2022-12-04T01:16:30.699Z,8.50
2022-12-04T01:18:58.925Z,8.60
2022-12-04T01:21:27.162Z,8.60
2022-12-04T01:23:55.415Z,8.60
2022-12-04T01:26:23.698Z,8.60
2022-12-04T01:28:51.872Z,8.60
2022-12-04T01:31:23.162Z,8.60
2022-12-04T01:33:52.013Z,8.60
2022-12-04T01:36:22.234Z,8.60
2022-12-04T01:38:50.877Z,8.60
2022-12-04T01:41:21.598Z,8.60
2022-12-04T01:44:15.112Z,8.60
2022-12-04T01:46:46.132Z,8.60
2022-12-04T01:49:17.973Z,8.60
2022-12-04T01:51:49.594Z,8.60
2022-12-04T01:54:22.573Z,8.60
2022-12-04T01:56:53.709Z,8.60
2022-12-04T01:59:29.216Z,8.60
2022-12-04T02:02:04.011Z,8.60
2022-12-04T02:04:34.537Z,8.60
2022-12-04T02:07:02.761Z,8.60
2022-12-04T02:09:31.989Z,8.60
2022-12-04T02:12:09.121Z,8.60
2022-12-04T02:14:45.986Z,8.50
2022-12-04T02:17:23.918Z,8.60
2022-12-04T02:20:30.975Z,8.70
2022-12-04T02:23:21.741Z,8.70
2022-12-04T02:26:00.766Z,8.70
2022-12-04T02:28:38.070Z,8.70
2022-12-04T02:31:09.342Z,8.70
2022-12-04T02:33:49.307Z,8.70
2022-12-04T02:36:22.049Z,8.80
2022-12-04T02:38:54.780Z,8.70
2022-12-04T02:41:26.828Z,8.80
2022-12-04T02:44:02.803Z,8.80
2022-12-04T02:46:37.972Z,8.70
2022-12-04T02:49:18.806Z,8.70
2022-12-04T02:51:49.739Z,8.70
2022-12-04T02:54:25.837Z,8.80
2022-12-04T02:56:56.449Z,8.70
2022-12-04T02:59:30.452Z,8.70
2022-12-04T03:02:03.487Z,8.70
2022-12-04T03:04:32.024Z,8.70
2022-12-04T03:07:03.535Z,8.70
2022-12-04T03:09:37.962Z,8.70
2022-12-04T03:12:11.550Z,8.70
2022-12-04T03:14:46.800Z,8.70
2022-12-04T03:17:21.300Z,8.70
2022-12-04T03:19:55.810Z,8.70
2022-12-04T03:22:26.463Z,8.70
2022-12-04T03:24:56.626Z,8.70
2022-12-04T03:27:31.648Z,8.70
2022-12-04T03:30:06.870Z,8.70
2022-12-04T03:32:40.526Z,8.70
2022-12-04T03:35:13.921Z,8.70
2022-12-04T03:37:51.441Z,8.70
2022-12-04T03:40:24.671Z,8.70
2022-12-04T03:42:59.473Z,8.70
2022-12-04T03:45:32.314Z,8.60
2022-12-04T03:48:04.311Z,8.60
2022-12-04T03:50:38.473Z,8.60
2022-12-04T03:53:13.982Z,8.60
2022-12-04T03:55:46.386Z,8.60
2022-12-04T03:58:19.456Z,8.60
2022-12-04T04:00:52.563Z,8.60
2022-12-04T04:03:24.073Z,8.60
2022-12-04T04:05:58.286Z,8.50
2022-12-04T04:08:33.975Z,8.60
2022-12-04T04:11:10.363Z,8.50
2022-12-04T04:14:01.619Z,8.50
2022-12-04T04:16:52.313Z,8.50
2022-12-04T04:19:39.305Z,8.50
2022-12-04T04:22:28.372Z,8.50
2022-12-04T04:24:59.724Z,8.40
2022-12-04T04:27:27.943Z,8.40
2022-12-04T04:29:56.516Z,8.40
2022-12-04T04:32:34.171Z,8.40
2022-12-04T04:35:11.053Z,8.40
2022-12-04T04:37:49.593Z,8.40
2022-12-04T04:40:27.001Z,8.40
2022-12-04T04:43:02.273Z,8.40
2022-12-04T04:45:37.251Z,8.40
2022-12-04T04:48:11.137Z,8.40
2022-12-04T04:50:40.741Z,8.40
2022-12-04T04:53:14.016Z,8.40
2022-12-04T04:55:43.540Z,8.40
2022-12-04T04:58:13.658Z,8.40
2022-12-04T05:00:45.537Z,8.40
2022-12-04T05:03:15.110Z,8.40
2022-12-04T05:05:43.307Z,8.40
2022-12-04T05:08:11.540Z,8.40
2022-12-04T05:10:39.722Z,8.40
2022-12-04T05:13:07.925Z,8.40
2022-12-04T05:15:36.221Z,8.40
2022-12-04T05:18:05.315Z,8.40
2022-12-04T05:20:34.874Z,8.40
2022-12-04T05:23:03.037Z,8.40
2022-12-04T05:25:32.070Z,8.40
2022-12-04T05:28:00.297Z,8.40
2022-12-04T05:30:28.462Z,8.40
2022-12-04T05:32:56.604Z,8.50
2022-12-04T05:35:24.873Z,8.40
2022-12-04T05:37:54.425Z,8.50
2022-12-04T05:40:22.674Z,8.40
2022-12-04T05:42:50.851Z,8.50
2022-12-04T05:45:19.139Z,8.50
2022-12-04T05:47:47.326Z,8.50
2022-12-04T05:50:15.666Z,8.50
2022-12-04T05:52:43.905Z,8.50
2022-12-04T05:55:13.447Z,8.60
2022-12-04T05:57:41.612Z,8.60
2022-12-04T06:00:10.841Z,8.60
2022-12-04T06:02:39.126Z,8.60
2022-12-04T06:05:07.958Z,8.60
2022-12-04T06:07:36.453Z,8.60
2022-12-04T06:10:05.131Z,8.60
2022-12-04T06:12:34.806Z,8.70
2022-12-04T06:15:03.047Z,8.70
2022-12-04T06:17:31.240Z,8.70
2022-12-04T06:20:00.330Z,8.70
2022-12-04T07:17:05.587Z,8.70
2022-12-04T07:19:33.868Z,9.20
2022-12-04T07:22:03.453Z,9.20
2022-12-04T07:36:54.272Z,9.30
2022-12-04T07:39:23.920Z,9.40
2022-12-04T07:41:52.082Z,9.40
2022-12-04T07:44:20.233Z,9.50
2022-12-04T07:46:48.398Z,9.50
2022-12-04T07:49:16.645Z,9.50
2022-12-04T07:51:44.837Z,9.50
2022-12-04T07:56:42.869Z,9.60
2022-12-04T07:59:11.215Z,9.60
2022-12-04T08:01:39.540Z,9.60
2022-12-04T08:04:07.759Z,9.60
2022-12-04T08:06:36.189Z,9.70
2022-12-04T08:09:09.532Z,9.70
2022-12-04T08:11:38.544Z,9.70
2022-12-04T08:14:09.724Z,9.70
2022-12-04T08:16:38.025Z,9.70
2022-12-04T08:19:06.327Z,9.70
2022-12-04T08:21:35.029Z,9.70
2022-12-04T08:24:03.608Z,9.70
2022-12-04T08:26:33.766Z,9.70
2022-12-04T08:29:02.560Z,9.70
2022-12-04T08:31:34.164Z,9.70
2022-12-04T08:34:04.634Z,9.60
2022-12-04T08:36:33.409Z,9.60
2022-12-04T08:39:01.646Z,9.70
2022-12-04T08:41:29.851Z,9.60
2022-12-04T08:43:58.849Z,9.70
2022-12-04T08:46:28.592Z,9.70
2022-12-04T08:48:58.656Z,9.70
2022-12-04T08:51:30.299Z,9.70
2022-12-04T08:54:00.356Z,9.70
2022-12-04T08:56:30.912Z,9.80
2022-12-04T08:59:00.223Z,9.80
2022-12-04T09:01:29.461Z,9.80
2022-12-04T09:03:59.493Z,9.80
2022-12-04T09:06:27.863Z,9.80
2022-12-04T09:08:57.629Z,9.70
2022-12-04T09:59:07.619Z,9.80
2022-12-04T10:37:16.220Z,9.90
2022-12-04T11:40:23.849Z,10.00
2022-12-04T16:18:41.250Z,10.30
2022-12-04T16:21:15.687Z,10.30
2022-12-04T16:23:44.304Z,10.30
2022-12-04T16:26:13.673Z,10.30
2022-12-04T16:28:41.907Z,10.30
2022-12-04T16:31:13.388Z,10.30
2022-12-04T16:33:42.036Z,10.30
2022-12-04T16:36:11.752Z,10.30
2022-12-04T16:38:39.936Z,10.30
2022-12-04T16:41:14.001Z,10.20
2022-12-04T16:43:42.568Z,10.20
2022-12-04T16:46:16.044Z,10.20
2022-12-04T16:48:44.838Z,10.20
2022-12-04T16:51:17.750Z,10.20
2022-12-04T16:53:45.917Z,10.20
2022-12-04T16:56:14.146Z,10.20
2022-12-04T16:58:42.904Z,10.20
2022-12-04T17:01:22.650Z,10.20
2022-12-04T17:03:51.267Z,10.10
2022-12-04T17:06:20.014Z,10.10
2022-12-04T17:08:48.274Z,10.10
2022-12-04T17:11:18.761Z,10.10
2022-12-04T17:13:47.356Z,10.10
2022-12-04T17:16:19.713Z,10.10
2022-12-04T17:18:48.485Z,10.00
2022-12-04T17:21:16.752Z,10.00
2022-12-04T17:23:45.607Z,10.00
2022-12-04T17:26:15.952Z,10.00
2022-12-04T17:28:44.161Z,10.00
2022-12-04T17:31:17.698Z,10.00
2022-12-04T17:33:46.667Z,10.10
2022-12-04T17:36:16.491Z,10.00
2022-12-04T17:38:44.937Z,10.00
2022-12-04T17:41:15.318Z,10.00
2022-12-04T17:43:44.566Z,10.00
2022-12-04T17:46:14.311Z,10.00
2022-12-04T17:48:44.147Z,10.00
2022-12-04T17:51:14.253Z,10.10
2022-12-04T17:53:42.911Z,10.10
2022-12-04T17:56:13.963Z,10.10
2022-12-04T17:58:42.136Z,10.10
2022-12-04T18:01:12.165Z,10.10
2022-12-04T18:03:41.282Z,10.10
2022-12-04T18:06:15.509Z,10.10
2022-12-04T18:08:49.602Z,10.10
2022-12-04T18:11:20.582Z,10.10
2022-12-04T18:13:49.101Z,10.10
2022-12-04T18:16:17.401Z,10.10
2022-12-04T18:18:47.056Z,10.10
2022-12-04T18:21:16.686Z,10.00
2022-12-04T18:23:45.963Z,9.90
2022-12-04T18:26:16.191Z,9.90
2022-12-04T18:28:44.920Z,9.80
2022-12-04T18:31:14.337Z,9.70
2022-12-04T18:33:43.851Z,9.70
2022-12-04T18:36:17.659Z,9.70
2022-12-04T18:38:46.381Z,9.60
2022-12-04T18:41:15.671Z,9.60
2022-12-04T18:43:45.306Z,9.60
2022-12-04T18:46:15.178Z,9.50
2022-12-04T20:01:12.388Z,9.50
2022-12-04T20:13:37.987Z,9.00
2022-12-04T20:16:10.400Z,8.90
2022-12-04T20:18:40.306Z,8.90
2022-12-04T20:23:46.208Z,8.90
2022-12-04T21:16:41.456Z,8.80
2022-12-04T21:19:12.330Z,8.40
2022-12-04T21:21:40.675Z,8.40
2022-12-04T21:24:11.300Z,8.30
2022-12-04T21:26:39.602Z,8.30
2022-12-04T21:29:08.480Z,8.20
2022-12-04T21:31:37.573Z,8.20
2022-12-04T21:34:07.781Z,8.20
2022-12-04T21:36:37.332Z,8.20
2022-12-04T21:39:05.945Z,8.10
2022-12-04T21:41:51.921Z,8.10
2022-12-04T21:44:21.602Z,8.10
2022-12-04T22:11:49.018Z,8.10
2022-12-04T22:14:17.175Z,7.80
2022-12-04T22:16:45.529Z,7.70
2022-12-04T22:19:14.267Z,7.70
2022-12-04T22:21:42.570Z,7.60
2022-12-04T22:24:12.462Z,7.60
2022-12-04T22:26:41.154Z,7.50
2022-12-04T22:29:34.226Z,7.50
2022-12-04T22:31:57.609Z,7.50
2022-12-04T22:34:25.819Z,7.50
2022-12-04T22:36:54.006Z,7.40
2022-12-04T22:39:23.672Z,7.40
2022-12-04T22:41:51.810Z,7.40
2022-12-04T22:44:20.068Z,7.40
2022-12-04T22:46:48.339Z,7.40
2022-12-04T22:49:16.545Z,7.40
2022-12-04T22:51:44.678Z,7.40
2022-12-04T22:54:15.066Z,7.40
2022-12-04T22:56:44.676Z,7.40
2022-12-04T22:59:12.854Z,7.40
2022-12-04T23:01:41.246Z,7.40
2022-12-04T23:04:09.414Z,7.40
2022-12-04T23:06:37.631Z,7.40
2022-12-04T23:09:08.403Z,7.50
2022-12-04T23:11:37.236Z,7.50
2022-12-04T23:14:10.060Z,7.50
2022-12-04T23:16:40.036Z,7.50
2022-12-04T23:19:10.488Z,7.50
2022-12-04T23:21:39.096Z,7.50
2022-12-04T23:24:07.998Z,7.60
2022-12-04T23:26:38.020Z,7.60
2022-12-04T23:29:29.688Z,7.60
2022-12-04T23:31:56.431Z,7.60
2022-12-04T23:34:24.678Z,7.60
2022-12-04T23:36:52.846Z,7.60
2022-12-04T23:39:21.069Z,7.60
2022-12-04T23:41:49.275Z,7.60
2022-12-04T23:44:18.854Z,7.60
2022-12-04T23:46:47.085Z,7.60
2022-12-04T23:49:15.317Z,7.60
2022-12-04T23:51:43.470Z,7.60
2022-12-04T23:54:11.779Z,7.60
2022-12-04T23:56:40.118Z,7.60
2022-12-04T23:59:08.292Z,7.60
